^^
Station Historical Data
Daily Summary for February 6, 2018 Units:  Both    English   Metric
« Previous Day
Next Day »
Daily Weekly Monthly Yearly Custom
  High: Low: Average:
Temperature: TemperatureF °F /  -17.8 °C 69.8 °F /  21 °C 76.7 °F /  24.8 °C
Dew Point: DewpointF °F /  -17.8 °C 50.5 °F /  10.3 °C 53.5 °F /  11.9 °C
Humidity: Humidity% 30% 45%
Wind Speed: WindSpeedMPHmph /  0km/h - 3mph /  4.8km/h
Wind Gust: WindSpeedGustMPHmph /  0km/h - -
Wind- - SSE
Pressure: PressureIn in /  0 hPa 29.54 in /  1000.2 hPa -
Precipitation: 0.00 in /  0 mm    
Historical Graphs
 
 
Tabular Data for February 6, 2018
Time Temperature Dew Point Pressure Wind Wind Speed Wind Gust Humidity Rainfall Rate (Hourly) solar Conditions
TemperatureF °F /  -17.8 °C DewpointF °F /  -17.8 °C PressureInin /  0hPa Calm     Humidity% HourlyPrecipInin /  0mm SolarRadiationWatts/m^2 W/m2 Conditions
00:02 72.5 °F /  22.5 °C 53.4 °F /  11.9 °C 29.67in /  1004.6hPa South 2.0mph /  3.2km/h 5.0mph /  8km/h 51% 0.00in /  0mm 0.0 W/m2
00:07 72.5 °F /  22.5 °C 53.4 °F /  11.9 °C 29.67in /  1004.6hPa South 2.0mph /  3.2km/h 5.0mph /  8km/h 51% 0.00in /  0mm 0.0 W/m2
00:12 72.7 °F /  22.6 °C 53.4 °F /  11.9 °C 29.67in /  1004.6hPa SSE 2.0mph /  3.2km/h 7.0mph /  11.3km/h 51% 0.00in /  0mm 0.0 W/m2
00:17 72.5 °F /  22.5 °C 54.0 °F /  12.2 °C 29.66in /  1004.3hPa SW 0.9mph /  1.4km/h 5.0mph /  8km/h 52% 0.00in /  0mm 0.0 W/m2
00:22 72.5 °F /  22.5 °C 53.4 °F /  11.9 °C 29.66in /  1004.3hPa Calm   4.0mph /  6.4km/h 51% 0.00in /  0mm 0.0 W/m2
00:27 72.7 °F /  22.6 °C 53.4 °F /  11.9 °C 29.66in /  1004.3hPa Calm   4.0mph /  6.4km/h 51% 0.00in /  0mm 0.0 W/m2
00:32 72.7 °F /  22.6 °C 53.4 °F /  11.9 °C 29.66in /  1004.3hPa Calm   4.0mph /  6.4km/h 51% 0.00in /  0mm 0.0 W/m2
00:37 72.7 °F /  22.6 °C 53.4 °F /  11.9 °C 29.66in /  1004.3hPa SSW 4.0mph /  6.4km/h 4.0mph /  6.4km/h 51% 0.00in /  0mm 0.0 W/m2
00:43 72.7 °F /  22.6 °C 53.4 °F /  11.9 °C 29.66in /  1004.3hPa South 2.0mph /  3.2km/h 4.0mph /  6.4km/h 51% 0.00in /  0mm 0.0 W/m2
00:48 72.7 °F /  22.6 °C 53.4 °F /  11.9 °C 29.66in /  1004.3hPa Calm   2.0mph /  3.2km/h 51% 0.00in /  0mm 0.0 W/m2
00:54 72.7 °F /  22.6 °C 52.9 °F /  11.6 °C 29.65in /  1003.9hPa SW 2.9mph /  4.7km/h 5.0mph /  8km/h 50% 0.00in /  0mm 0.0 W/m2
00:59 72.7 °F /  22.6 °C 52.9 °F /  11.6 °C 29.65in /  1003.9hPa South 2.9mph /  4.7km/h 3.0mph /  4.8km/h 50% 0.00in /  0mm 0.0 W/m2
01:04 72.9 °F /  22.7 °C 53.1 °F /  11.7 °C 29.65in /  1003.9hPa SSE 8.1mph /  13km/h 8.1mph /  13km/h 50% 0.00in /  0mm 0.0 W/m2
01:09 72.7 °F /  22.6 °C 52.9 °F /  11.6 °C 29.65in /  1003.9hPa SSE 0.9mph /  1.4km/h 6.0mph /  9.7km/h 50% 0.00in /  0mm 0.0 W/m2
01:14 72.7 °F /  22.6 °C 52.9 °F /  11.6 °C 29.65in /  1003.9hPa South 6.9mph /  11.1km/h 9.0mph /  14.5km/h 50% 0.00in /  0mm 0.0 W/m2
01:19 72.7 °F /  22.6 °C 52.9 °F /  11.6 °C 29.65in /  1003.9hPa SSE 2.0mph /  3.2km/h 7.0mph /  11.3km/h 50% 0.00in /  0mm 0.0 W/m2
01:24 72.7 °F /  22.6 °C 52.9 °F /  11.6 °C 29.65in /  1003.9hPa NE 2.9mph /  4.7km/h 9.0mph /  14.5km/h 50% 0.00in /  0mm 0.0 W/m2
01:30 72.9 °F /  22.7 °C 53.1 °F /  11.7 °C 29.65in /  1003.9hPa SE 4.9mph /  7.9km/h 8.0mph /  12.9km/h 50% 0.00in /  0mm 0.0 W/m2
01:35 72.9 °F /  22.7 °C 53.1 °F /  11.7 °C 29.65in /  1003.9hPa South 2.9mph /  4.7km/h 10.0mph /  16.1km/h 50% 0.00in /  0mm 0.0 W/m2
01:41 72.9 °F /  22.7 °C 53.1 °F /  11.7 °C 29.65in /  1003.9hPa SW 2.0mph /  3.2km/h 7.0mph /  11.3km/h 50% 0.00in /  0mm 0.0 W/m2
01:46 72.7 °F /  22.6 °C 52.9 °F /  11.6 °C 29.65in /  1003.9hPa WSW 4.0mph /  6.4km/h 7.0mph /  11.3km/h 50% 0.00in /  0mm 0.0 W/m2
01:51 72.7 °F /  22.6 °C 52.9 °F /  11.6 °C 29.65in /  1003.9hPa Calm   6.0mph /  9.7km/h 50% 0.00in /  0mm 0.0 W/m2
01:56 72.7 °F /  22.6 °C 52.9 °F /  11.6 °C 29.65in /  1003.9hPa Calm   1.0mph /  1.6km/h 50% 0.00in /  0mm 0.0 W/m2
02:01 72.5 °F /  22.5 °C 53.4 °F /  11.9 °C 29.65in /  1003.9hPa Calm   1.0mph /  1.6km/h 51% 0.00in /  0mm 0.0 W/m2
02:06 72.3 °F /  22.4 °C 53.2 °F /  11.8 °C 29.65in /  1003.9hPa Calm   5.0mph /  8km/h 51% 0.00in /  0mm 0.0 W/m2
02:11 72.3 °F /  22.4 °C 53.2 °F /  11.8 °C 29.65in /  1003.9hPa Calm   4.0mph /  6.4km/h 51% 0.00in /  0mm 0.0 W/m2
02:16 72.3 °F /  22.4 °C 53.2 °F /  11.8 °C 29.65in /  1003.9hPa SSW 6.9mph /  11.1km/h 9.0mph /  14.5km/h 51% 0.00in /  0mm 0.0 W/m2
02:22 72.3 °F /  22.4 °C 53.2 °F /  11.8 °C 29.65in /  1003.9hPa SSW 4.0mph /  6.4km/h 4.0mph /  6.4km/h 51% 0.00in /  0mm 0.0 W/m2
02:27 72.3 °F /  22.4 °C 53.2 °F /  11.8 °C 29.65in /  1003.9hPa SSW 4.0mph /  6.4km/h 6.0mph /  9.7km/h 51% 0.00in /  0mm 0.0 W/m2
02:32 72.3 °F /  22.4 °C 53.2 °F /  11.8 °C 29.64in /  1003.6hPa Calm   3.0mph /  4.8km/h 51% 0.00in /  0mm 0.0 W/m2
02:37 72.3 °F /  22.4 °C 53.2 °F /  11.8 °C 29.64in /  1003.6hPa Calm   4.0mph /  6.4km/h 51% 0.00in /  0mm 0.0 W/m2
02:42 72.3 °F /  22.4 °C 53.2 °F /  11.8 °C 29.64in /  1003.6hPa SSW 2.0mph /  3.2km/h 3.0mph /  4.8km/h 51% 0.00in /  0mm 0.0 W/m2
02:47 72.3 °F /  22.4 °C 53.2 °F /  11.8 °C 29.64in /  1003.6hPa Calm   2.0mph /  3.2km/h 51% 0.00in /  0mm 0.0 W/m2
02:52 72.1 °F /  22.3 °C 53.1 °F /  11.7 °C 29.64in /  1003.6hPa West 7.0mph /  11.3km/h 7.0mph /  11.3km/h 51% 0.00in /  0mm 0.0 W/m2
02:57 72.1 °F /  22.3 °C 53.1 °F /  11.7 °C 29.64in /  1003.6hPa West 0.9mph /  1.4km/h 2.0mph /  3.2km/h 51% 0.00in /  0mm 0.0 W/m2
03:03 72.0 °F /  22.2 °C 53.4 °F /  11.9 °C 29.64in /  1003.6hPa Calm   1.0mph /  1.6km/h 52% 0.00in /  0mm 0.0 W/m2
03:08 72.0 °F /  22.2 °C 53.4 °F /  11.9 °C 29.64in /  1003.6hPa SSW 2.0mph /  3.2km/h 5.0mph /  8km/h 52% 0.00in /  0mm 0.0 W/m2
03:13 72.0 °F /  22.2 °C 53.4 °F /  11.9 °C 29.64in /  1003.6hPa South 2.0mph /  3.2km/h 2.0mph /  3.2km/h 52% 0.00in /  0mm 0.0 W/m2
03:18 72.0 °F /  22.2 °C 53.4 °F /  11.9 °C 29.63in /  1003.3hPa Calm   4.0mph /  6.4km/h 52% 0.00in /  0mm 0.0 W/m2
03:23 72.0 °F /  22.2 °C 52.9 °F /  11.6 °C 29.63in /  1003.3hPa Calm   5.0mph /  8km/h 51% 0.00in /  0mm 0.0 W/m2
03:28 72.0 °F /  22.2 °C 52.9 °F /  11.6 °C 29.63in /  1003.3hPa ESE 0.9mph /  1.4km/h 5.0mph /  8km/h 51% 0.00in /  0mm 0.0 W/m2
03:33 72.1 °F /  22.3 °C 53.1 °F /  11.7 °C 29.63in /  1003.3hPa SE 2.0mph /  3.2km/h 8.0mph /  12.9km/h 51% 0.00in /  0mm 0.0 W/m2
03:38 72.1 °F /  22.3 °C 53.1 °F /  11.7 °C 29.63in /  1003.3hPa SSE 2.9mph /  4.7km/h 6.0mph /  9.7km/h 51% 0.00in /  0mm 0.0 W/m2
03:43 72.1 °F /  22.3 °C 53.1 °F /  11.7 °C 29.63in /  1003.3hPa Calm   6.0mph /  9.7km/h 51% 0.00in /  0mm 0.0 W/m2
03:48 72.1 °F /  22.3 °C 53.1 °F /  11.7 °C 29.63in /  1003.3hPa SSW 0.9mph /  1.4km/h 3.0mph /  4.8km/h 51% 0.00in /  0mm 0.0 W/m2
03:54 72.1 °F /  22.3 °C 53.1 °F /  11.7 °C 29.63in /  1003.3hPa South 4.0mph /  6.4km/h 7.0mph /  11.3km/h 51% 0.00in /  0mm 0.0 W/m2
03:59 72.1 °F /  22.3 °C 53.1 °F /  11.7 °C 29.63in /  1003.3hPa SE 6.0mph /  9.7km/h 11.0mph /  17.7km/h 51% 0.00in /  0mm 0.0 W/m2
04:05 72.1 °F /  22.3 °C 52.5 °F /  11.4 °C 29.63in /  1003.3hPa South 4.9mph /  7.9km/h 12.0mph /  19.3km/h 50% 0.00in /  0mm 0.0 W/m2
04:10 72.3 °F /  22.4 °C 53.2 °F /  11.8 °C 29.63in /  1003.3hPa Calm   7.0mph /  11.3km/h 51% 0.00in /  0mm 0.0 W/m2
04:15 72.3 °F /  22.4 °C 52.7 °F /  11.5 °C 29.62in /  1002.9hPa SSE 4.0mph /  6.4km/h 9.0mph /  14.5km/h 50% 0.00in /  0mm 0.0 W/m2
04:20 72.1 °F /  22.3 °C 52.5 °F /  11.4 °C 29.62in /  1002.9hPa SE 4.9mph /  7.9km/h 14.0mph /  22.5km/h 50% 0.00in /  0mm 0.0 W/m2
04:25 72.1 °F /  22.3 °C 52.5 °F /  11.4 °C 29.62in /  1002.9hPa ESE 0.9mph /  1.4km/h 10.0mph /  16.1km/h 50% 0.00in /  0mm 0.0 W/m2
04:30 72.0 °F /  22.2 °C 52.9 °F /  11.6 °C 29.62in /  1002.9hPa South 0.9mph /  1.4km/h 13.0mph /  20.9km/h 51% 0.00in /  0mm 0.0 W/m2
04:35 72.0 °F /  22.2 °C 52.9 °F /  11.6 °C 29.62in /  1002.9hPa SE 6.0mph /  9.7km/h 11.0mph /  17.7km/h 51% 0.00in /  0mm 0.0 W/m2
04:40 71.8 °F /  22.1 °C 52.7 °F /  11.5 °C 29.62in /  1002.9hPa ESE 4.9mph /  7.9km/h 8.0mph /  12.9km/h 51% 0.00in /  0mm 0.0 W/m2
04:46 71.8 °F /  22.1 °C 52.7 °F /  11.5 °C 29.62in /  1002.9hPa SSW 2.0mph /  3.2km/h 5.0mph /  8km/h 51% 0.00in /  0mm 0.0 W/m2
04:51 71.6 °F /  22 °C 52.5 °F /  11.4 °C 29.62in /  1002.9hPa SE 2.0mph /  3.2km/h 10.0mph /  16.1km/h 51% 0.00in /  0mm 0.0 W/m2
04:56 71.4 °F /  21.9 °C 52.3 °F /  11.3 °C 29.62in /  1002.9hPa SSE 2.9mph /  4.7km/h 10.0mph /  16.1km/h 51% 0.00in /  0mm 0.0 W/m2
05:01 71.4 °F /  21.9 °C 52.9 °F /  11.6 °C 29.62in /  1002.9hPa SSE 4.9mph /  7.9km/h 6.0mph /  9.7km/h 52% 0.00in /  0mm 0.0 W/m2
05:06 71.2 °F /  21.8 °C 52.2 °F /  11.2 °C 29.62in /  1002.9hPa Calm   7.0mph /  11.3km/h 51% 0.00in /  0mm 0.0 W/m2
05:11 71.2 °F /  21.8 °C 52.7 °F /  11.5 °C 29.62in /  1002.9hPa South 4.0mph /  6.4km/h 11.0mph /  17.7km/h 52% 0.00in /  0mm 0.0 W/m2
05:16 71.1 °F /  21.7 °C 52.5 °F /  11.4 °C 29.62in /  1002.9hPa WSW 0.9mph /  1.4km/h 5.0mph /  8km/h 52% 0.00in /  0mm 0.0 W/m2
05:21 71.1 °F /  21.7 °C 52.5 °F /  11.4 °C 29.62in /  1002.9hPa SE 2.9mph /  4.7km/h 3.0mph /  4.8km/h 52% 0.00in /  0mm 0.0 W/m2
05:26 70.9 °F /  21.6 °C 52.3 °F /  11.3 °C 29.62in /  1002.9hPa SE 0.9mph /  1.4km/h 5.0mph /  8km/h 52% 0.00in /  0mm 0.0 W/m2
05:31 70.9 °F /  21.6 °C 52.3 °F /  11.3 °C 29.62in /  1002.9hPa South 4.0mph /  6.4km/h 6.0mph /  9.7km/h 52% 0.00in /  0mm 0.0 W/m2
05:37 70.9 °F /  21.6 °C 52.3 °F /  11.3 °C 29.62in /  1002.9hPa Calm   6.0mph /  9.7km/h 52% 0.00in /  0mm 0.0 W/m2
05:42 70.7 °F /  21.5 °C 52.2 °F /  11.2 °C 29.62in /  1002.9hPa SW 4.0mph /  6.4km/h 5.0mph /  8km/h 52% 0.00in /  0mm 0.0 W/m2
05:47 70.5 °F /  21.4 °C 52.0 °F /  11.1 °C 29.62in /  1002.9hPa East 8.9mph /  14.3km/h 10.0mph /  16.1km/h 52% 0.00in /  0mm 0.0 W/m2
05:52 70.5 °F /  21.4 °C 52.5 °F /  11.4 °C 29.62in /  1002.9hPa SE 4.0mph /  6.4km/h 5.0mph /  8km/h 53% 0.00in /  0mm 0.0 W/m2
05:57 70.5 °F /  21.4 °C 52.5 °F /  11.4 °C 29.62in /  1002.9hPa SE 8.9mph /  14.3km/h 9.0mph /  14.5km/h 53% 0.00in /  0mm 0.0 W/m2
06:02 70.3 °F /  21.3 °C 52.3 °F /  11.3 °C 29.62in /  1002.9hPa ESE 0.9mph /  1.4km/h 12.0mph /  19.3km/h 53% 0.00in /  0mm 0.0 W/m2
06:07 70.3 °F /  21.3 °C 52.3 °F /  11.3 °C 29.62in /  1002.9hPa SE 4.9mph /  7.9km/h 6.0mph /  9.7km/h 53% 0.00in /  0mm 0.0 W/m2
06:12 70.3 °F /  21.3 °C 52.3 °F /  11.3 °C 29.62in /  1002.9hPa Calm   5.0mph /  8km/h 53% 0.00in /  0mm 0.0 W/m2
06:18 70.2 °F /  21.2 °C 52.2 °F /  11.2 °C 29.62in /  1002.9hPa SSE 4.9mph /  7.9km/h 5.0mph /  8km/h 53% 0.00in /  0mm 0.0 W/m2
06:23 70.2 °F /  21.2 °C 52.2 °F /  11.2 °C 29.62in /  1002.9hPa SSE 2.0mph /  3.2km/h 5.0mph /  8km/h 53% 0.00in /  0mm 0.0 W/m2
06:28 70.2 °F /  21.2 °C 52.2 °F /  11.2 °C 29.62in /  1002.9hPa South 2.9mph /  4.7km/h 6.0mph /  9.7km/h 53% 0.00in /  0mm 0.0 W/m2
06:33 70.0 °F /  21.1 °C 52.0 °F /  11.1 °C 29.62in /  1002.9hPa Calm   3.0mph /  4.8km/h 53% 0.00in /  0mm 0.0 W/m2
06:38 70.0 °F /  21.1 °C 52.0 °F /  11.1 °C 29.62in /  1002.9hPa SE 0.9mph /  1.4km/h 2.0mph /  3.2km/h 53% 0.00in /  0mm 0.0 W/m2
06:43 70.0 °F /  21.1 °C 52.0 °F /  11.1 °C 29.62in /  1002.9hPa South 2.9mph /  4.7km/h 6.0mph /  9.7km/h 53% 0.00in /  0mm 5.0 W/m2
06:48 70.0 °F /  21.1 °C 52.0 °F /  11.1 °C 29.62in /  1002.9hPa SSE 2.9mph /  4.7km/h 3.0mph /  4.8km/h 53% 0.00in /  0mm 5.0 W/m2
06:53 69.8 °F /  21 °C 52.3 °F /  11.3 °C 29.63in /  1003.3hPa SE 0.9mph /  1.4km/h 5.0mph /  8km/h 54% 0.00in /  0mm 9.0 W/m2
06:59 69.8 °F /  21 °C 52.3 °F /  11.3 °C 29.63in /  1003.3hPa SSW 2.0mph /  3.2km/h 6.0mph /  9.7km/h 54% 0.00in /  0mm 14.0 W/m2
07:04 70.0 °F /  21.1 °C 52.5 °F /  11.4 °C 29.63in /  1003.3hPa Calm   2.0mph /  3.2km/h 54% 0.00in /  0mm 19.0 W/m2
07:09 70.0 °F /  21.1 °C 52.5 °F /  11.4 °C 29.63in /  1003.3hPa Calm   5.0mph /  8km/h 54% 0.00in /  0mm 26.0 W/m2
07:14 70.0 °F /  21.1 °C 52.5 °F /  11.4 °C 29.63in /  1003.3hPa SSE 0.9mph /  1.4km/h 5.0mph /  8km/h 54% 0.00in /  0mm 37.0 W/m2
07:19 70.0 °F /  21.1 °C 52.5 °F /  11.4 °C 29.64in /  1003.6hPa Calm   1.0mph /  1.6km/h 54% 0.00in /  0mm 47.0 W/m2
07:24 70.2 °F /  21.2 °C 52.7 °F /  11.5 °C 29.64in /  1003.6hPa Calm   1.0mph /  1.6km/h 54% 0.00in /  0mm 56.0 W/m2
07:29 70.2 °F /  21.2 °C 52.7 °F /  11.5 °C 29.64in /  1003.6hPa SE 0.9mph /  1.4km/h 3.0mph /  4.8km/h 54% 0.00in /  0mm 63.0 W/m2
07:34 70.3 °F /  21.3 °C 53.4 °F /  11.9 °C 29.64in /  1003.6hPa Calm     55% 0.00in /  0mm 77.0 W/m2
07:39 70.5 °F /  21.4 °C 53.1 °F /  11.7 °C 29.64in /  1003.6hPa Calm   1.0mph /  1.6km/h 54% 0.00in /  0mm 95.0 W/m2
07:44 70.9 °F /  21.6 °C 53.4 °F /  11.9 °C 29.64in /  1003.6hPa Calm   2.0mph /  3.2km/h 54% 0.00in /  0mm 111.0 W/m2
07:50 71.2 °F /  21.8 °C 52.7 °F /  11.5 °C 29.64in /  1003.6hPa SSW 2.0mph /  3.2km/h 3.0mph /  4.8km/h 52% 0.00in /  0mm 123.0 W/m2
07:55 72.0 °F /  22.2 °C 53.4 °F /  11.9 °C 29.64in /  1003.6hPa South 2.9mph /  4.7km/h 5.0mph /  8km/h 52% 0.00in /  0mm 134.0 W/m2
08:00 72.5 °F /  22.5 °C 53.4 °F /  11.9 °C 29.64in /  1003.6hPa SSW 2.0mph /  3.2km/h 4.0mph /  6.4km/h 51% 0.00in /  0mm 146.0 W/m2
08:05 73.0 °F /  22.8 °C 53.8 °F /  12.1 °C 29.64in /  1003.6hPa Calm   4.0mph /  6.4km/h 51% 0.00in /  0mm 151.0 W/m2
08:10 73.8 °F /  23.2 °C 53.4 °F /  11.9 °C 29.64in /  1003.6hPa SE 4.9mph /  7.9km/h 5.0mph /  8km/h 49% 0.00in /  0mm 149.0 W/m2
08:15 74.3 °F /  23.5 °C 53.4 °F /  11.9 °C 29.64in /  1003.6hPa SE 4.0mph /  6.4km/h 7.0mph /  11.3km/h 48% 0.00in /  0mm 137.0 W/m2
08:20 74.8 °F /  23.8 °C 53.2 °F /  11.8 °C 29.64in /  1003.6hPa SSE 2.0mph /  3.2km/h 5.0mph /  8km/h 47% 0.00in /  0mm 132.0 W/m2
08:25 75.0 °F /  23.9 °C 52.9 °F /  11.6 °C 29.64in /  1003.6hPa South 6.0mph /  9.7km/h 7.0mph /  11.3km/h 46% 0.00in /  0mm 142.0 W/m2
08:31 75.4 °F /  24.1 °C 53.2 °F /  11.8 °C 29.64in /  1003.6hPa SE 6.0mph /  9.7km/h 7.0mph /  11.3km/h 46% 0.00in /  0mm 151.0 W/m2
08:36 75.4 °F /  24.1 °C 53.2 °F /  11.8 °C 29.64in /  1003.6hPa SE 4.9mph /  7.9km/h 10.0mph /  16.1km/h 46% 0.00in /  0mm 179.0 W/m2
08:41 75.6 °F /  24.2 °C 53.2 °F /  11.8 °C 29.64in /  1003.6hPa SSE 4.0mph /  6.4km/h 8.0mph /  12.9km/h 46% 0.00in /  0mm 218.0 W/m2
08:46 75.6 °F /  24.2 °C 53.2 °F /  11.8 °C 29.64in /  1003.6hPa South 2.0mph /  3.2km/h 9.0mph /  14.5km/h 46% 0.00in /  0mm 253.0 W/m2
08:51 75.9 °F /  24.4 °C 53.6 °F /  12 °C 29.64in /  1003.6hPa ESE 4.9mph /  7.9km/h 6.0mph /  9.7km/h 46% 0.00in /  0mm 429.0 W/m2
08:56 76.5 °F /  24.7 °C 53.6 °F /  12 °C 29.64in /  1003.6hPa SE 8.1mph /  13km/h 9.0mph /  14.5km/h 45% 0.00in /  0mm 489.0 W/m2
09:01 77.2 °F /  25.1 °C 53.6 °F /  12 °C 29.64in /  1003.6hPa SE 4.9mph /  7.9km/h 7.0mph /  11.3km/h 44% 0.00in /  0mm 455.0 W/m2
09:06 77.5 °F /  25.3 °C 54.0 °F /  12.2 °C 29.64in /  1003.6hPa East 4.9mph /  7.9km/h 5.0mph /  8km/h 44% 0.00in /  0mm 503.0 W/m2
09:11 78.3 °F /  25.7 °C 54.0 °F /  12.2 °C 29.64in /  1003.6hPa ESE 4.9mph /  7.9km/h 9.0mph /  14.5km/h 43% 0.00in /  0mm 473.0 W/m2
09:16 78.6 °F /  25.9 °C 53.6 °F /  12 °C 29.64in /  1003.6hPa East 2.9mph /  4.7km/h 6.0mph /  9.7km/h 42% 0.00in /  0mm 478.0 W/m2
09:21 79.2 °F /  26.2 °C 54.1 °F /  12.3 °C 29.64in /  1003.6hPa SE 4.0mph /  6.4km/h 7.0mph /  11.3km/h 42% 0.00in /  0mm 480.0 W/m2
09:26 79.7 °F /  26.5 °C 54.0 °F /  12.2 °C 29.64in /  1003.6hPa ESE 4.0mph /  6.4km/h 6.0mph /  9.7km/h 41% 0.00in /  0mm 441.0 W/m2
09:31 80.1 °F /  26.7 °C 54.3 °F /  12.4 °C 29.64in /  1003.6hPa ENE 0.9mph /  1.4km/h 7.0mph /  11.3km/h 41% 0.00in /  0mm 411.0 W/m2
09:36 80.1 °F /  26.7 °C 54.3 °F /  12.4 °C 29.64in /  1003.6hPa NE 0.9mph /  1.4km/h 6.0mph /  9.7km/h 41% 0.00in /  0mm 501.0 W/m2
09:41 80.2 °F /  26.8 °C 53.8 °F /  12.1 °C 29.64in /  1003.6hPa South 2.0mph /  3.2km/h 5.0mph /  8km/h 40% 0.00in /  0mm 598.0 W/m2
09:46 80.6 °F /  27 °C 54.0 °F /  12.2 °C 29.64in /  1003.6hPa ESE 4.9mph /  7.9km/h 8.0mph /  12.9km/h 40% 0.00in /  0mm 585.0 W/m2
09:51 81.0 °F /  27.2 °C 54.3 °F /  12.4 °C 29.64in /  1003.6hPa ESE 2.0mph /  3.2km/h 7.0mph /  11.3km/h 40% 0.00in /  0mm 606.0 W/m2
09:56 81.0 °F /  27.2 °C 53.6 °F /  12 °C 29.64in /  1003.6hPa South 6.0mph /  9.7km/h 9.0mph /  14.5km/h 39% 0.00in /  0mm 631.0 W/m2
10:01 81.0 °F /  27.2 °C 54.3 °F /  12.4 °C 29.65in /  1003.9hPa SE 4.9mph /  7.9km/h 10.0mph /  16.1km/h 40% 0.00in /  0mm 696.0 W/m2
10:07 81.1 °F /  27.3 °C 54.5 °F /  12.5 °C 29.65in /  1003.9hPa SE 2.0mph /  3.2km/h 6.0mph /  9.7km/h 40% 0.00in /  0mm 172.0 W/m2
10:13 81.3 °F /  27.4 °C 54.7 °F /  12.6 °C 29.64in /  1003.6hPa NNE 2.0mph /  3.2km/h 5.0mph /  8km/h 40% 0.00in /  0mm 796.0 W/m2
10:18 82.0 °F /  27.8 °C 54.7 °F /  12.6 °C 29.64in /  1003.6hPa North 2.0mph /  3.2km/h 4.0mph /  6.4km/h 39% 0.00in /  0mm 721.0 W/m2
10:24 82.6 °F /  28.1 °C 54.3 °F /  12.4 °C 29.64in /  1003.6hPa ESE 0.9mph /  1.4km/h 8.0mph /  12.9km/h 38% 0.00in /  0mm 693.0 W/m2
10:29 82.9 °F /  28.3 °C 54.7 °F /  12.6 °C 29.64in /  1003.6hPa Calm   4.0mph /  6.4km/h 38% 0.00in /  0mm 814.0 W/m2
10:36 83.5 °F /  28.6 °C 55.2 °F /  12.9 °C 29.64in /  1003.6hPa SSE 4.0mph /  6.4km/h 5.0mph /  8km/h 38% 0.00in /  0mm 777.0 W/m2
10:41 82.9 °F /  28.3 °C 54.0 °F /  12.2 °C 29.64in /  1003.6hPa NE 2.9mph /  4.7km/h 7.0mph /  11.3km/h 37% 0.00in /  0mm 250.0 W/m2
10:46 82.6 °F /  28.1 °C 52.9 °F /  11.6 °C 29.65in /  1003.9hPa NNE 6.9mph /  11.1km/h 15.0mph /  24.1km/h 36% 0.00in /  0mm 251.0 W/m2
10:51 82.0 °F /  27.8 °C 53.2 °F /  11.8 °C 29.64in /  1003.6hPa North 4.0mph /  6.4km/h 5.0mph /  8km/h 37% 0.00in /  0mm 234.0 W/m2
10:56 81.9 °F /  27.7 °C 53.8 °F /  12.1 °C 29.64in /  1003.6hPa SSE 0.9mph /  1.4km/h 1.0mph /  1.6km/h 38% 0.00in /  0mm 1018.0 W/m2
11:01 82.0 °F /  27.8 °C 53.2 °F /  11.8 °C 29.64in /  1003.6hPa North 0.9mph /  1.4km/h 7.0mph /  11.3km/h 37% 0.00in /  0mm 1090.0 W/m2
11:11 83.5 °F /  28.6 °C 53.8 °F /  12.1 °C 29.64in /  1003.6hPa NE 4.9mph /  7.9km/h 8.0mph /  12.9km/h 36% 0.00in /  0mm 981.0 W/m2
11:16 84.4 °F /  29.1 °C 52.9 °F /  11.6 °C 29.64in /  1003.6hPa SE 0.9mph /  1.4km/h 4.0mph /  6.4km/h 34% 0.00in /  0mm 308.0 W/m2
11:21 84.6 °F /  29.2 °C 54.0 °F /  12.2 °C 29.63in /  1003.3hPa ESE 2.9mph /  4.7km/h 8.0mph /  12.9km/h 35% 0.00in /  0mm 1111.0 W/m2
11:26 84.6 °F /  29.2 °C 53.1 °F /  11.7 °C 29.63in /  1003.3hPa NE 6.0mph /  9.7km/h 8.0mph /  12.9km/h 34% 0.00in /  0mm 316.0 W/m2
11:32 84.4 °F /  29.1 °C 52.9 °F /  11.6 °C 29.63in /  1003.3hPa North 0.9mph /  1.4km/h 6.0mph /  9.7km/h 34% 0.00in /  0mm 251.0 W/m2
11:37 84.4 °F /  29.1 °C 54.5 °F /  12.5 °C 29.63in /  1003.3hPa Calm   4.0mph /  6.4km/h 36% 0.00in /  0mm 301.0 W/m2
11:42 84.6 °F /  29.2 °C 54.0 °F /  12.2 °C 29.63in /  1003.3hPa ENE 2.0mph /  3.2km/h 10.0mph /  16.1km/h 35% 0.00in /  0mm 306.0 W/m2
11:48 84.9 °F /  29.4 °C 53.4 °F /  11.9 °C 29.63in /  1003.3hPa NE 2.9mph /  4.7km/h 7.0mph /  11.3km/h 34% 0.00in /  0mm 1150.0 W/m2
11:53 85.6 °F /  29.8 °C 53.2 °F /  11.8 °C 29.63in /  1003.3hPa ENE 2.9mph /  4.7km/h 6.0mph /  9.7km/h 33% 0.00in /  0mm 1172.0 W/m2
11:58 86.2 °F /  30.1 °C 52.9 °F /  11.6 °C 29.62in /  1002.9hPa Calm   6.0mph /  9.7km/h 32% 0.00in /  0mm 1197.0 W/m2
12:03 86.5 °F /  30.3 °C 53.2 °F /  11.8 °C 29.62in /  1002.9hPa NNE 6.0mph /  9.7km/h 6.0mph /  9.7km/h 32% 0.00in /  0mm 1171.0 W/m2
12:08 87.4 °F /  30.8 °C 54.0 °F /  12.2 °C 29.62in /  1002.9hPa NE 2.0mph /  3.2km/h 4.0mph /  6.4km/h 32% 0.00in /  0mm 1232.0 W/m2
12:13 88.2 °F /  31.2 °C 52.9 °F /  11.6 °C 29.62in /  1002.9hPa East 10.1mph /  16.3km/h 10.1mph /  16.3km/h 30% 0.00in /  0mm 1211.0 W/m2
12:19 88.3 °F /  31.3 °C 53.1 °F /  11.7 °C 29.62in /  1002.9hPa NE 6.9mph /  11.1km/h 10.0mph /  16.1km/h 30% 0.00in /  0mm 1093.0 W/m2
12:24 88.0 °F /  31.1 °C 52.7 °F /  11.5 °C 29.62in /  1002.9hPa Calm   6.0mph /  9.7km/h 30% 0.00in /  0mm 1155.0 W/m2
12:29 88.2 °F /  31.2 °C 52.9 °F /  11.6 °C 29.61in /  1002.6hPa NW 0.9mph /  1.4km/h 4.0mph /  6.4km/h 30% 0.00in /  0mm 1025.0 W/m2
12:34 88.2 °F /  31.2 °C 52.9 °F /  11.6 °C 29.61in /  1002.6hPa NE 0.9mph /  1.4km/h 7.0mph /  11.3km/h 30% 0.00in /  0mm 979.0 W/m2
12:39 88.3 °F /  31.3 °C 53.1 °F /  11.7 °C 29.61in /  1002.6hPa North 4.0mph /  6.4km/h 4.0mph /  6.4km/h 30% 0.00in /  0mm 1157.0 W/m2
12:44 88.5 °F /  31.4 °C 53.1 °F /  11.7 °C 29.60in /  1002.3hPa Calm   5.0mph /  8km/h 30% 0.00in /  0mm 276.0 W/m2
12:49 88.3 °F /  31.3 °C 53.1 °F /  11.7 °C 29.60in /  1002.3hPa NNE 4.9mph /  7.9km/h 7.0mph /  11.3km/h 30% 0.00in /  0mm 269.0 W/m2
12:54 88.0 °F /  31.1 °C 53.6 °F /  12 °C 29.60in /  1002.3hPa ENE 0.9mph /  1.4km/h 9.0mph /  14.5km/h 31% 0.00in /  0mm 330.0 W/m2
12:59 87.4 °F /  30.8 °C 53.1 °F /  11.7 °C 29.60in /  1002.3hPa ESE 2.0mph /  3.2km/h 7.0mph /  11.3km/h 31% 0.00in /  0mm 316.0 W/m2
13:04 87.1 °F /  30.6 °C 53.6 °F /  12 °C 29.60in /  1002.3hPa NE 4.9mph /  7.9km/h 8.0mph /  12.9km/h 32% 0.00in /  0mm 301.0 W/m2
13:09 86.5 °F /  30.3 °C 54.0 °F /  12.2 °C 29.59in /  1001.9hPa ENE 6.9mph /  11.1km/h 8.0mph /  12.9km/h 33% 0.00in /  0mm 309.0 W/m2
13:14 86.2 °F /  30.1 °C 54.5 °F /  12.5 °C 29.59in /  1001.9hPa SE 2.0mph /  3.2km/h 3.0mph /  4.8km/h 34% 0.00in /  0mm 308.0 W/m2
13:19 86.0 °F /  30 °C 54.3 °F /  12.4 °C 29.59in /  1001.9hPa ENE 0.9mph /  1.4km/h 7.0mph /  11.3km/h 34% 0.00in /  0mm 309.0 W/m2
13:25 85.6 °F /  29.8 °C 53.2 °F /  11.8 °C 29.59in /  1001.9hPa NE 0.9mph /  1.4km/h 7.0mph /  11.3km/h 33% 0.00in /  0mm 336.0 W/m2
13:30 85.5 °F /  29.7 °C 52.2 °F /  11.2 °C 29.59in /  1001.9hPa SE 2.9mph /  4.7km/h 5.0mph /  8km/h 32% 0.00in /  0mm 371.0 W/m2
13:35 85.5 °F /  29.7 °C 54.0 °F /  12.2 °C 29.59in /  1001.9hPa SE 2.9mph /  4.7km/h 5.0mph /  8km/h 34% 0.00in /  0mm 371.0 W/m2
13:40 85.5 °F /  29.7 °C 53.1 °F /  11.7 °C 29.59in /  1001.9hPa North 6.9mph /  11.1km/h 7.0mph /  11.3km/h 33% 0.00in /  0mm 411.0 W/m2
13:45 85.8 °F /  29.9 °C 53.4 °F /  11.9 °C 29.59in /  1001.9hPa NNE 4.0mph /  6.4km/h 4.0mph /  6.4km/h 33% 0.00in /  0mm 446.0 W/m2
13:50 86.2 °F /  30.1 °C 53.8 °F /  12.1 °C 29.58in /  1001.6hPa NNW 4.0mph /  6.4km/h 8.0mph /  12.9km/h 33% 0.00in /  0mm 364.0 W/m2
13:55 86.2 °F /  30.1 °C 53.8 °F /  12.1 °C 29.58in /  1001.6hPa East 0.9mph /  1.4km/h 6.0mph /  9.7km/h 33% 0.00in /  0mm 364.0 W/m2
14:00 86.2 °F /  30.1 °C 52.0 °F /  11.1 °C 29.58in /  1001.6hPa NE 0.9mph /  1.4km/h 5.0mph /  8km/h 31% 0.00in /  0mm 353.0 W/m2
14:06 85.8 °F /  29.9 °C 52.5 °F /  11.4 °C 29.58in /  1001.6hPa SE 8.9mph /  14.3km/h 12.0mph /  19.3km/h 32% 0.00in /  0mm 283.0 W/m2
14:11 85.6 °F /  29.8 °C 51.6 °F /  10.9 °C 29.57in /  1001.2hPa SE 0.9mph /  1.4km/h 5.0mph /  8km/h 31% 0.00in /  0mm 271.0 W/m2
14:16 85.6 °F /  29.8 °C 51.6 °F /  10.9 °C 29.57in /  1001.2hPa NE 4.0mph /  6.4km/h 4.0mph /  6.4km/h 31% 0.00in /  0mm 290.0 W/m2
14:22 85.8 °F /  29.9 °C 50.7 °F /  10.4 °C 29.57in /  1001.2hPa ESE 8.9mph /  14.3km/h 9.0mph /  14.5km/h 30% 0.00in /  0mm 329.0 W/m2
14:27 85.6 °F /  29.8 °C 50.7 °F /  10.4 °C 29.57in /  1001.2hPa ESE 13.0mph /  20.9km/h 14.0mph /  22.5km/h 30% 0.00in /  0mm 336.0 W/m2
14:32 85.5 °F /  29.7 °C 50.5 °F /  10.3 °C 29.57in /  1001.2hPa ESE 8.9mph /  14.3km/h 9.0mph /  14.5km/h 30% 0.00in /  0mm 348.0 W/m2
14:37 85.5 °F /  29.7 °C 50.5 °F /  10.3 °C 29.56in /  1000.9hPa SE 4.0mph /  6.4km/h 10.0mph /  16.1km/h 30% 0.00in /  0mm 360.0 W/m2
14:42 85.6 °F /  29.8 °C 50.7 °F /  10.4 °C 29.56in /  1000.9hPa East 2.9mph /  4.7km/h 8.0mph /  12.9km/h 30% 0.00in /  0mm 327.0 W/m2
14:47 85.6 °F /  29.8 °C 52.3 °F /  11.3 °C 29.56in /  1000.9hPa SSE 10.1mph /  16.3km/h 13.0mph /  20.9km/h 32% 0.00in /  0mm 316.0 W/m2
14:52 85.6 °F /  29.8 °C 52.3 °F /  11.3 °C 29.56in /  1000.9hPa South 4.0mph /  6.4km/h 7.0mph /  11.3km/h 32% 0.00in /  0mm 297.0 W/m2
14:57 85.5 °F /  29.7 °C 50.5 °F /  10.3 °C 29.56in /  1000.9hPa South 0.9mph /  1.4km/h 8.0mph /  12.9km/h 30% 0.00in /  0mm 283.0 W/m2
15:03 85.6 °F /  29.8 °C 51.6 °F /  10.9 °C 29.56in /  1000.9hPa SE 4.0mph /  6.4km/h 10.0mph /  16.1km/h 31% 0.00in /  0mm 322.0 W/m2
15:08 85.5 °F /  29.7 °C 51.4 °F /  10.8 °C 29.56in /  1000.9hPa ESE 8.1mph /  13km/h 9.0mph /  14.5km/h 31% 0.00in /  0mm 250.0 W/m2
15:13 85.3 °F /  29.6 °C 51.3 °F /  10.7 °C 29.55in /  1000.6hPa ESE 0.9mph /  1.4km/h 8.0mph /  12.9km/h 31% 0.00in /  0mm 171.0 W/m2
15:18 84.9 °F /  29.4 °C 50.9 °F /  10.5 °C 29.56in /  1000.9hPa South 2.9mph /  4.7km/h 11.0mph /  17.7km/h 31% 0.00in /  0mm 139.0 W/m2
15:23 84.7 °F /  29.3 °C 50.7 °F /  10.4 °C 29.56in /  1000.9hPa SE 6.0mph /  9.7km/h 8.0mph /  12.9km/h 31% 0.00in /  0mm 139.0 W/m2
15:28 84.6 °F /  29.2 °C 53.1 °F /  11.7 °C 29.57in /  1001.2hPa West 4.9mph /  7.9km/h 11.0mph /  17.7km/h 34% 0.00in /  0mm 135.0 W/m2
15:33 83.1 °F /  28.4 °C 54.9 °F /  12.7 °C 29.57in /  1001.2hPa WSW 8.1mph /  13km/h 8.1mph /  13km/h 38% 0.00in /  0mm 135.0 W/m2
15:38 82.0 °F /  27.8 °C 55.4 °F /  13 °C 29.56in /  1000.9hPa WSW 0.9mph /  1.4km/h 2.0mph /  3.2km/h 40% 0.00in /  0mm 144.0 W/m2
15:44 81.1 °F /  27.3 °C 55.2 °F /  12.9 °C 29.56in /  1000.9hPa Calm   4.0mph /  6.4km/h 41% 0.00in /  0mm 192.0 W/m2
15:49 80.8 °F /  27.1 °C 53.6 °F /  12 °C 29.56in /  1000.9hPa Calm   3.0mph /  4.8km/h 39% 0.00in /  0mm 206.0 W/m2
15:54 81.0 °F /  27.2 °C 53.6 °F /  12 °C 29.55in /  1000.6hPa Calm   3.0mph /  4.8km/h 39% 0.00in /  0mm 202.0 W/m2
16:00 81.3 °F /  27.4 °C 52.5 °F /  11.4 °C 29.55in /  1000.6hPa Calm   3.0mph /  4.8km/h 37% 0.00in /  0mm 197.0 W/m2
16:05 81.9 °F /  27.7 °C 54.5 °F /  12.5 °C 29.55in /  1000.6hPa West 2.9mph /  4.7km/h 8.0mph /  12.9km/h 39% 0.00in /  0mm 193.0 W/m2
16:10 81.9 °F /  27.7 °C 54.5 °F /  12.5 °C 29.55in /  1000.6hPa Calm   2.0mph /  3.2km/h 39% 0.00in /  0mm 188.0 W/m2
16:15 81.7 °F /  27.6 °C 54.3 °F /  12.4 °C 29.55in /  1000.6hPa Calm   5.0mph /  8km/h 39% 0.00in /  0mm 316.0 W/m2
16:20 81.7 °F /  27.6 °C 55.0 °F /  12.8 °C 29.55in /  1000.6hPa West 2.9mph /  4.7km/h 3.0mph /  4.8km/h 40% 0.00in /  0mm 107.0 W/m2
16:25 81.3 °F /  27.4 °C 55.4 °F /  13 °C 29.55in /  1000.6hPa Calm   3.0mph /  4.8km/h 41% 0.00in /  0mm 70.0 W/m2
16:30 81.0 °F /  27.2 °C 55.0 °F /  12.8 °C 29.54in /  1000.2hPa WNW 2.0mph /  3.2km/h 4.0mph /  6.4km/h 41% 0.00in /  0mm 90.0 W/m2
16:35 81.0 °F /  27.2 °C 55.0 °F /  12.8 °C 29.55in /  1000.6hPa WSW 0.9mph /  1.4km/h 3.0mph /  4.8km/h 41% 0.00in /  0mm 116.0 W/m2
16:40 80.8 °F /  27.1 °C 55.6 °F /  13.1 °C 29.55in /  1000.6hPa SW 0.9mph /  1.4km/h 8.0mph /  12.9km/h 42% 0.00in /  0mm 93.0 W/m2
16:45 80.6 °F /  27 °C 55.4 °F /  13 °C 29.55in /  1000.6hPa WSW 4.9mph /  7.9km/h 7.0mph /  11.3km/h 42% 0.00in /  0mm 93.0 W/m2
16:50 80.4 °F /  26.9 °C 55.2 °F /  12.9 °C 29.55in /  1000.6hPa WNW 2.9mph /  4.7km/h 7.0mph /  11.3km/h 42% 0.00in /  0mm 105.0 W/m2
16:55 80.1 °F /  26.7 °C 54.9 °F /  12.7 °C 29.55in /  1000.6hPa WNW 4.0mph /  6.4km/h 14.0mph /  22.5km/h 42% 0.00in /  0mm 120.0 W/m2
17:00 79.5 °F /  26.4 °C 55.8 °F /  13.2 °C 29.55in /  1000.6hPa West 4.9mph /  7.9km/h 16.0mph /  25.7km/h 44% 0.00in /  0mm 132.0 W/m2
17:05 79.2 °F /  26.2 °C 55.4 °F /  13 °C 29.55in /  1000.6hPa West 6.9mph /  11.1km/h 10.0mph /  16.1km/h 44% 0.00in /  0mm 149.0 W/m2
17:11 79.2 °F /  26.2 °C 54.7 °F /  12.6 °C 29.55in /  1000.6hPa South 6.0mph /  9.7km/h 13.0mph /  20.9km/h 43% 0.00in /  0mm 165.0 W/m2
17:16 79.0 °F /  26.1 °C 54.5 °F /  12.5 °C 29.55in /  1000.6hPa WNW 4.9mph /  7.9km/h 10.0mph /  16.1km/h 43% 0.00in /  0mm 176.0 W/m2
17:21 79.0 °F /  26.1 °C 55.2 °F /  12.9 °C 29.55in /  1000.6hPa WSW 2.9mph /  4.7km/h 8.0mph /  12.9km/h 44% 0.00in /  0mm 202.0 W/m2
17:26 79.0 °F /  26.1 °C 54.5 °F /  12.5 °C 29.56in /  1000.9hPa SW 4.9mph /  7.9km/h 15.0mph /  24.1km/h 43% 0.00in /  0mm 229.0 W/m2
17:32 79.2 °F /  26.2 °C 54.7 °F /  12.6 °C 29.56in /  1000.9hPa WSW 6.9mph /  11.1km/h 8.0mph /  12.9km/h 43% 0.00in /  0mm 197.0 W/m2
17:37 79.2 °F /  26.2 °C 54.1 °F /  12.3 °C 29.57in /  1001.2hPa West 6.9mph /  11.1km/h 9.0mph /  14.5km/h 42% 0.00in /  0mm 156.0 W/m2
17:43 79.2 °F /  26.2 °C 54.7 °F /  12.6 °C 29.57in /  1001.2hPa WSW 4.0mph /  6.4km/h 10.0mph /  16.1km/h 43% 0.00in /  0mm 146.0 W/m2
17:48 79.2 °F /  26.2 °C 54.7 °F /  12.6 °C 29.56in /  1000.9hPa South 2.0mph /  3.2km/h 7.0mph /  11.3km/h 43% 0.00in /  0mm 155.0 W/m2
17:53 79.2 °F /  26.2 °C 55.4 °F /  13 °C 29.56in /  1000.9hPa WSW 0.9mph /  1.4km/h 7.0mph /  11.3km/h 44% 0.00in /  0mm 149.0 W/m2
17:58 79.2 °F /  26.2 °C 54.7 °F /  12.6 °C 29.55in /  1000.6hPa West 11.0mph /  17.7km/h 11.0mph /  17.7km/h 43% 0.00in /  0mm 141.0 W/m2
18:03 79.2 °F /  26.2 °C 54.7 °F /  12.6 °C 29.55in /  1000.6hPa West 6.9mph /  11.1km/h 10.0mph /  16.1km/h 43% 0.00in /  0mm 121.0 W/m2
18:08 79.0 °F /  26.1 °C 54.5 °F /  12.5 °C 29.55in /  1000.6hPa South 2.0mph /  3.2km/h 7.0mph /  11.3km/h 43% 0.00in /  0mm 107.0 W/m2
18:13 78.8 °F /  26 °C 54.5 °F /  12.5 °C 29.56in /  1000.9hPa WSW 8.9mph /  14.3km/h 9.0mph /  14.5km/h 43% 0.00in /  0mm 91.0 W/m2
18:18 78.6 °F /  25.9 °C 54.9 °F /  12.7 °C 29.56in /  1000.9hPa SW 4.9mph /  7.9km/h 6.0mph /  9.7km/h 44% 0.00in /  0mm 74.0 W/m2
18:23 78.4 °F /  25.8 °C 54.7 °F /  12.6 °C 29.56in /  1000.9hPa WSW 2.9mph /  4.7km/h 9.0mph /  14.5km/h 44% 0.00in /  0mm 56.0 W/m2
18:28 78.3 °F /  25.7 °C 54.5 °F /  12.5 °C 29.56in /  1000.9hPa SW 2.0mph /  3.2km/h 5.0mph /  8km/h 44% 0.00in /  0mm 42.0 W/m2
18:33 78.3 °F /  25.7 °C 55.2 °F /  12.9 °C 29.56in /  1000.9hPa WSW 2.9mph /  4.7km/h 7.0mph /  11.3km/h 45% 0.00in /  0mm 47.0 W/m2
18:38 77.9 °F /  25.5 °C 54.9 °F /  12.7 °C 29.56in /  1000.9hPa SW 2.0mph /  3.2km/h 8.0mph /  12.9km/h 45% 0.00in /  0mm 72.0 W/m2
18:43 77.7 °F /  25.4 °C 54.7 °F /  12.6 °C 29.56in /  1000.9hPa SW 4.0mph /  6.4km/h 7.0mph /  11.3km/h 45% 0.00in /  0mm 76.0 W/m2
18:49 77.7 °F /  25.4 °C 54.7 °F /  12.6 °C 29.57in /  1001.2hPa WSW 2.0mph /  3.2km/h 5.0mph /  8km/h 45% 0.00in /  0mm 49.0 W/m2
18:54 77.7 °F /  25.4 °C 54.1 °F /  12.3 °C 29.57in /  1001.2hPa SW 0.9mph /  1.4km/h 8.0mph /  12.9km/h 44% 0.00in /  0mm 28.0 W/m2
18:59 77.7 °F /  25.4 °C 54.1 °F /  12.3 °C 29.57in /  1001.2hPa WSW 2.9mph /  4.7km/h 7.0mph /  11.3km/h 44% 0.00in /  0mm 21.0 W/m2
19:04 77.7 °F /  25.4 °C 54.1 °F /  12.3 °C 29.57in /  1001.2hPa SSW 2.9mph /  4.7km/h 3.0mph /  4.8km/h 44% 0.00in /  0mm 23.0 W/m2
19:09 77.7 °F /  25.4 °C 54.1 °F /  12.3 °C 29.57in /  1001.2hPa SSE 2.0mph /  3.2km/h 8.0mph /  12.9km/h 44% 0.00in /  0mm 18.0 W/m2
19:14 77.7 °F /  25.4 °C 54.1 °F /  12.3 °C 29.57in /  1001.2hPa SW 2.0mph /  3.2km/h 9.0mph /  14.5km/h 44% 0.00in /  0mm 18.0 W/m2
19:19 77.7 °F /  25.4 °C 54.1 °F /  12.3 °C 29.58in /  1001.6hPa SSW 2.9mph /  4.7km/h 8.0mph /  12.9km/h 44% 0.00in /  0mm 14.0 W/m2
19:25 77.7 °F /  25.4 °C 54.1 °F /  12.3 °C 29.58in /  1001.6hPa SSW 4.0mph /  6.4km/h 4.0mph /  6.4km/h 44% 0.00in /  0mm 7.0 W/m2
19:30 77.7 °F /  25.4 °C 54.1 °F /  12.3 °C 29.58in /  1001.6hPa SW 4.9mph /  7.9km/h 10.0mph /  16.1km/h 44% 0.00in /  0mm 0.0 W/m2
19:36 77.7 °F /  25.4 °C 54.7 °F /  12.6 °C 29.58in /  1001.6hPa South 0.9mph /  1.4km/h 5.0mph /  8km/h 45% 0.00in /  0mm 0.0 W/m2
19:41 77.5 °F /  25.3 °C 54.5 °F /  12.5 °C 29.59in /  1001.9hPa Calm   1.0mph /  1.6km/h 45% 0.00in /  0mm 0.0 W/m2
19:46 77.7 °F /  25.4 °C 54.7 °F /  12.6 °C 29.59in /  1001.9hPa South 0.9mph /  1.4km/h 7.0mph /  11.3km/h 45% 0.00in /  0mm 0.0 W/m2
19:51 77.5 °F /  25.3 °C 54.5 °F /  12.5 °C 29.59in /  1001.9hPa Calm   5.0mph /  8km/h 45% 0.00in /  0mm 0.0 W/m2
19:56 77.5 °F /  25.3 °C 55.8 °F /  13.2 °C 29.59in /  1001.9hPa SE 4.9mph /  7.9km/h 7.0mph /  11.3km/h 47% 0.00in /  0mm 0.0 W/m2
20:01 77.4 °F /  25.2 °C 56.1 °F /  13.4 °C 29.59in /  1001.9hPa Calm   7.0mph /  11.3km/h 48% 0.00in /  0mm 0.0 W/m2
20:06 77.2 °F /  25.1 °C 55.9 °F /  13.3 °C 29.59in /  1001.9hPa South 4.9mph /  7.9km/h 7.0mph /  11.3km/h 48% 0.00in /  0mm 0.0 W/m2
20:11 77.2 °F /  25.1 °C 55.4 °F /  13 °C 29.59in /  1001.9hPa SSW 4.0mph /  6.4km/h 8.0mph /  12.9km/h 47% 0.00in /  0mm 0.0 W/m2
20:17 76.8 °F /  24.9 °C 55.0 °F /  12.8 °C 29.59in /  1001.9hPa SSE 2.9mph /  4.7km/h 6.0mph /  9.7km/h 47% 0.00in /  0mm 0.0 W/m2
20:22 76.8 °F /  24.9 °C 54.5 °F /  12.5 °C 29.59in /  1001.9hPa SSW 2.0mph /  3.2km/h 5.0mph /  8km/h 46% 0.00in /  0mm 0.0 W/m2
20:28 76.6 °F /  24.8 °C 54.3 °F /  12.4 °C 29.59in /  1001.9hPa South 2.9mph /  4.7km/h 7.0mph /  11.3km/h 46% 0.00in /  0mm 0.0 W/m2
20:33 76.6 °F /  24.8 °C 54.9 °F /  12.7 °C 29.60in /  1002.3hPa SSE 2.9mph /  4.7km/h 6.0mph /  9.7km/h 47% 0.00in /  0mm 0.0 W/m2
20:38 76.3 °F /  24.6 °C 54.5 °F /  12.5 °C 29.61in /  1002.6hPa SSE 6.0mph /  9.7km/h 7.0mph /  11.3km/h 47% 0.00in /  0mm 0.0 W/m2
20:43 75.9 °F /  24.4 °C 54.3 °F /  12.4 °C 29.62in /  1002.9hPa SSE 6.0mph /  9.7km/h 9.0mph /  14.5km/h 47% 0.00in /  0mm 0.0 W/m2
20:48 75.6 °F /  24.2 °C 54.0 °F /  12.2 °C 29.63in /  1003.3hPa SSE 4.9mph /  7.9km/h 6.0mph /  9.7km/h 47% 0.00in /  0mm 0.0 W/m2
20:53 75.4 °F /  24.1 °C 54.3 °F /  12.4 °C 29.64in /  1003.6hPa SE 6.0mph /  9.7km/h 6.0mph /  9.7km/h 48% 0.00in /  0mm 0.0 W/m2
20:58 75.4 °F /  24.1 °C 53.8 °F /  12.1 °C 29.64in /  1003.6hPa SSW 0.9mph /  1.4km/h 2.0mph /  3.2km/h 47% 0.00in /  0mm 0.0 W/m2
21:03 75.2 °F /  24 °C 53.6 °F /  12 °C 29.64in /  1003.6hPa South 0.9mph /  1.4km/h 3.0mph /  4.8km/h 47% 0.00in /  0mm 0.0 W/m2
21:09 75.4 °F /  24.1 °C 53.8 °F /  12.1 °C 29.64in /  1003.6hPa East 4.9mph /  7.9km/h 5.0mph /  8km/h 47% 0.00in /  0mm 0.0 W/m2
21:14 75.4 °F /  24.1 °C 53.8 °F /  12.1 °C 29.65in /  1003.9hPa ESE 2.9mph /  4.7km/h 6.0mph /  9.7km/h 47% 0.00in /  0mm 0.0 W/m2
21:19 75.4 °F /  24.1 °C 53.8 °F /  12.1 °C 29.65in /  1003.9hPa SE 2.0mph /  3.2km/h 4.0mph /  6.4km/h 47% 0.00in /  0mm 0.0 W/m2
21:24 75.4 °F /  24.1 °C 53.8 °F /  12.1 °C 29.65in /  1003.9hPa SSE 2.0mph /  3.2km/h 3.0mph /  4.8km/h 47% 0.00in /  0mm 0.0 W/m2
21:29 75.4 °F /  24.1 °C 53.8 °F /  12.1 °C 29.65in /  1003.9hPa SE 0.9mph /  1.4km/h 5.0mph /  8km/h 47% 0.00in /  0mm 0.0 W/m2
21:34 75.4 °F /  24.1 °C 53.8 °F /  12.1 °C 29.65in /  1003.9hPa Calm   2.0mph /  3.2km/h 47% 0.00in /  0mm 0.0 W/m2
21:39 75.4 °F /  24.1 °C 53.8 °F /  12.1 °C 29.65in /  1003.9hPa ESE 2.0mph /  3.2km/h 3.0mph /  4.8km/h 47% 0.00in /  0mm 0.0 W/m2
21:44 75.4 °F /  24.1 °C 53.8 °F /  12.1 °C 29.66in /  1004.3hPa East 0.9mph /  1.4km/h 1.0mph /  1.6km/h 47% 0.00in /  0mm 0.0 W/m2
21:49 75.2 °F /  24 °C 53.6 °F /  12 °C 29.66in /  1004.3hPa Calm   1.0mph /  1.6km/h 47% 0.00in /  0mm 0.0 W/m2
21:54 75.0 °F /  23.9 °C 54.0 °F /  12.2 °C 29.66in /  1004.3hPa East 2.0mph /  3.2km/h 8.0mph /  12.9km/h 48% 0.00in /  0mm 0.0 W/m2
22:00 75.0 °F /  23.9 °C 54.5 °F /  12.5 °C 29.66in /  1004.3hPa SSE 0.9mph /  1.4km/h 5.0mph /  8km/h 49% 0.00in /  0mm 0.0 W/m2
22:05 74.8 °F /  23.8 °C 56.1 °F /  13.4 °C 29.66in /  1004.3hPa Calm   3.0mph /  4.8km/h 52% 0.00in /  0mm 0.0 W/m2
22:10 74.7 °F /  23.7 °C 58.5 °F /  14.7 °C 29.67in /  1004.6hPa ENE 2.0mph /  3.2km/h 2.0mph /  3.2km/h 57% 0.00in /  0mm 0.0 W/m2
22:15 73.9 °F /  23.3 °C 57.2 °F /  14 °C 29.67in /  1004.6hPa ENE 8.1mph /  13km/h 8.1mph /  13km/h 56% 0.00in /  0mm 0.0 W/m2
22:20 73.0 °F /  22.8 °C 56.8 °F /  13.8 °C 29.67in /  1004.6hPa NE 4.0mph /  6.4km/h 11.0mph /  17.7km/h 57% 0.00in /  0mm 0.0 W/m2
22:26 72.1 °F /  22.3 °C 57.0 °F /  13.9 °C 29.67in /  1004.6hPa ENE 10.1mph /  16.3km/h 10.1mph /  16.3km/h 59% 0.00in /  0mm 0.0 W/m2
22:31 71.4 °F /  21.9 °C 56.8 °F /  13.8 °C 29.67in /  1004.6hPa Calm   6.0mph /  9.7km/h 60% 0.00in /  0mm 0.0 W/m2
22:36 71.2 °F /  21.8 °C 57.0 °F /  13.9 °C 29.67in /  1004.6hPa NE 2.0mph /  3.2km/h 4.0mph /  6.4km/h 61% 0.00in /  0mm 0.0 W/m2
22:41 71.1 °F /  21.7 °C 56.5 °F /  13.6 °C 29.67in /  1004.6hPa SE 2.0mph /  3.2km/h 4.0mph /  6.4km/h 60% 0.00in /  0mm 0.0 W/m2
22:47 71.2 °F /  21.8 °C 55.2 °F /  12.9 °C 29.67in /  1004.6hPa SE 2.0mph /  3.2km/h 10.0mph /  16.1km/h 57% 0.00in /  0mm 0.0 W/m2
22:52 71.6 °F /  22 °C 55.0 °F /  12.8 °C 29.67in /  1004.6hPa SE 4.0mph /  6.4km/h 6.0mph /  9.7km/h 56% 0.00in /  0mm 0.0 W/m2
22:57 72.0 °F /  22.2 °C 55.4 °F /  13 °C 29.68in /  1005hPa SE 2.9mph /  4.7km/h 6.0mph /  9.7km/h 56% 0.00in /  0mm 0.0 W/m2
23:02 72.1 °F /  22.3 °C 55.6 °F /  13.1 °C 29.68in /  1005hPa ESE 8.9mph /  14.3km/h 13.0mph /  20.9km/h 56% 0.00in /  0mm 0.0 W/m2
23:07 72.1 °F /  22.3 °C 56.1 °F /  13.4 °C 29.68in /  1005hPa ESE 2.0mph /  3.2km/h 8.0mph /  12.9km/h 57% 0.00in /  0mm 0.0 W/m2
23:12 72.0 °F /  22.2 °C 56.3 °F /  13.5 °C 29.68in /  1005hPa East 4.0mph /  6.4km/h 8.0mph /  12.9km/h 58% 0.00in /  0mm 0.0 W/m2
23:17 71.8 °F /  22.1 °C 56.7 °F /  13.7 °C 29.68in /  1005hPa East 4.9mph /  7.9km/h 8.0mph /  12.9km/h 59% 0.00in /  0mm 0.0 W/m2
23:22 71.6 °F /  22 °C 57.0 °F /  13.9 °C 29.68in /  1005hPa SSE 4.9mph /  7.9km/h 8.0mph /  12.9km/h 60% 0.00in /  0mm 0.0 W/m2
23:27 71.2 °F /  21.8 °C 57.0 °F /  13.9 °C 29.68in /  1005hPa ESE 8.1mph /  13km/h 8.1mph /  13km/h 61% 0.00in /  0mm 0.0 W/m2
23:32 71.1 °F /  21.7 °C 57.4 °F /  14.1 °C 29.67in /  1004.6hPa ESE 4.9mph /  7.9km/h 10.0mph /  16.1km/h 62% 0.00in /  0mm 0.0 W/m2
23:38 70.9 °F /  21.6 °C 57.2 °F /  14 °C 29.67in /  1004.6hPa SE 6.9mph /  11.1km/h 9.0mph /  14.5km/h 62% 0.00in /  0mm 0.0 W/m2
23:43 70.5 °F /  21.4 °C 57.4 °F /  14.1 °C 29.67in /  1004.6hPa SE 4.9mph /  7.9km/h 9.0mph /  14.5km/h 63% 0.00in /  0mm 0.0 W/m2
23:48 70.3 °F /  21.3 °C 57.6 °F /  14.2 °C 29.67in /  1004.6hPa SSE 0.9mph /  1.4km/h 9.0mph /  14.5km/h 64% 0.00in /  0mm 0.0 W/m2
23:53 70.2 °F /  21.2 °C 57.0 °F /  13.9 °C 29.67in /  1004.6hPa Calm   11.0mph /  17.7km/h 63% 0.00in /  0mm 0.0 W/m2
23:58 70.2 °F /  21.2 °C 57.4 °F /  14.1 °C 29.67in /  1004.6hPa NE 2.0mph /  3.2km/h 6.0mph /  9.7km/h 64% 0.00in /  0mm 0.0 W/m2
Olympia, Windhoek, Namibia
Compliments of Weather Underground - 3.25 mb